San Francisco International, CA

5:36 PM PDT on September 17, 2014 (GMT -0700)
San Francisco International | Change Station
CLOSE
Current Station
Airport
Location: San Francisco,
Elevation: 16 ft
Nearby Weather Stations

Elev 16 ft 37.62 °N, 122.37 °W | Updated 40 minutes ago

Clear
Clear
78 °F
Feels Like 78 °F
N
20
Wind Variable Wind from SSW

Today
High -- | Low -- °F
--% Chance of Precip.
Yesterday
High -- | Low -- °F
Precip. -- in
6:53 AM 7:14 PM
Waning Crescent, 32% visible
Pressure 29.75 in
Visibility 10.0 miles
Clouds Few 15000 ft
Dew Point 57 °F
Humidity 48%
Rainfall 0.00 in
Snow Depth 0 in , 0 in , 0 in
UV 2 out of 12
Pollen 5.10 out of 12
Ozone Good
PM2.5 Good
Flu Activity Not available.
METAR KSFO 172356Z 21017KT 10SM FEW150 26/14 A2975 RMK AO2 SLP075 T02560139 10278 20211 56011

More Conditions Fewer Conditions

Pressure 29.75 in
Visibility 10.0 miles
Clouds Few 15000 ft
Dew Point 57 °F
Humidity 48%
Rainfall 0.00 in
Snow Depth 0 in , 0 in , 0 in
UV 2 out of 12
Pollen 5.10 out of 12
Ozone Good
PM2.5 Good
Flu Activity Not available.
METAR KSFO 172356Z 21017KT 10SM FEW150 26/14 A2975 RMK AO2 SLP075 T02560139 10278 20211 56011

More Conditions Fewer Conditions

10-Day Weather Forecast

Almanac

Astronomy

Sep. 17, 2014 Rise Set
Actual Time 6:53 AM PDT 7:14 PM PDT
Civil Twilight 6:26 AM PDT 7:40 PM PDT
Nautical Twilight 5:56 AM PDT 8:10 PM PDT
Astronomical Twilight 5:24 AM PDT 8:42 PM PDT
Moon 1:02 AM PDT (9/17) 3:23 PM PDT (9/17)
Length of Visible Light 13h 13m
Length of Day
12h 20m
Tomorrow will be 2m 23s shorter.
Waning Crescent, 32% of the Moon is Illuminated
Today
Waning Crescent
Sep 24
New
Oct 1
First Quarter
Oct 8
Full
Oct 15
Last Quarter

Today's Extremes

State Highs State Lows

Community

WunderPhotos

Upload Photos

1,754,225 photos uploaded!

Nearby

Air Quality

  Air Quality AQ Index Pollutant
Yesterday Good
PM2.5
Yesterday Good
OZONE
Current Good
PM2.5
Current Good
OZONE
Wednesday Good
OZONE
Thursday Good
OZONE
Friday Good
OZONE
Saturday Good
PM2.5
Sunday Good
PM2.5
Monday Good
PM2.5

Snow Depth

Station Depth Elevation
Adin Mountain 0 in 6200 ft
Leavitt Meadows 0 in 7200 ft
Tahoe City Cross 0 in 6750 ft
Summit Meadow 0 in 9122 ft
CSS Lab 3 in 6900 ft

Earthquake Activity

City Distance Mag. Time & Date
Cobb, California 83 miles 2.7 1:23 PM PDT
2014-09-16
Minimum magnitude displayed is 2.5.

Coastal Water Temperatures

Place Temperature
No Stations Reporting

Nearby Weather Stations